createdAt,value
2019-04-03T00:02:06.127Z,95231.20
2019-04-03T00:04:35.574Z,95223.70
2019-04-03T00:07:05.587Z,95225.51
2019-04-03T00:09:36.830Z,95232.16
2019-04-03T00:12:08.686Z,95233.48
2019-04-03T00:14:42.428Z,95225.48
2019-04-03T00:17:11.903Z,95227.60
2019-04-03T00:19:41.419Z,95232.00
2019-04-03T00:22:11.047Z,95228.97
2019-04-03T00:24:40.604Z,95233.81
2019-04-03T00:27:10.199Z,95232.75
2019-04-03T00:29:39.685Z,95222.39
2019-04-03T00:32:09.252Z,95224.66
2019-04-03T00:34:38.820Z,95224.38
2019-04-03T00:37:08.309Z,95219.53
2019-04-03T00:39:38.398Z,95221.52
2019-04-03T00:42:07.984Z,95229.27
2019-04-03T00:44:37.398Z,95230.57
2019-04-03T00:47:06.929Z,95221.30
2019-04-03T00:49:36.479Z,95218.47
2019-04-03T00:52:06.026Z,95229.34
2019-04-03T00:54:35.453Z,95216.49
2019-04-03T00:57:05.453Z,95219.11
2019-04-03T00:59:35.104Z,95220.12
2019-04-03T01:02:04.646Z,95223.82
2019-04-03T01:04:34.169Z,95215.80
2019-04-03T01:07:03.751Z,95215.66
2019-04-03T01:09:33.284Z,95210.24
2019-04-03T01:12:03.021Z,95216.93
2019-04-03T01:14:32.626Z,95213.28
2019-04-03T01:17:04.351Z,95213.57
2019-04-03T01:19:36.110Z,95214.39
2019-04-03T01:22:05.635Z,95208.18
2019-04-03T01:24:38.807Z,95204.36
2019-04-03T01:27:11.280Z,95204.36
2019-04-03T01:29:42.340Z,95203.20
2019-04-03T01:32:11.513Z,95197.80
2019-04-03T01:34:41.074Z,95197.83
2019-04-03T01:37:10.643Z,95195.27
2019-04-03T01:39:40.169Z,95194.53
2019-04-03T01:42:09.822Z,95196.47
2019-04-03T01:44:39.398Z,95197.56
2019-04-03T01:47:08.932Z,95188.98
2019-04-03T01:49:38.444Z,95197.00
2019-04-03T01:52:07.988Z,95187.37
2019-04-03T01:54:37.525Z,95182.75
2019-04-03T01:57:07.067Z,95187.25
2019-04-03T01:59:37.584Z,95184.06
2019-04-03T02:02:08.509Z,95191.77
2019-04-03T02:04:38.733Z,95192.91
2019-04-03T02:07:08.220Z,95193.39
2019-04-03T02:09:37.842Z,95192.12
2019-04-03T02:12:07.499Z,95190.82
2019-04-03T02:14:37.081Z,95191.95
2019-04-03T02:17:06.608Z,95183.31
2019-04-03T02:19:36.280Z,95185.88
2019-04-03T02:22:05.858Z,95190.36
2019-04-03T02:24:35.455Z,95187.00
2019-04-03T02:27:05.040Z,95186.18
2019-04-03T02:29:34.829Z,95189.55
2019-04-03T02:32:05.135Z,95186.83
2019-04-03T02:34:36.124Z,95188.91
2019-04-03T02:37:06.156Z,95188.26
2019-04-03T02:39:35.769Z,95199.93
2019-04-03T02:42:08.615Z,95199.61
2019-04-03T02:44:37.144Z,95197.36
2019-04-03T02:47:06.573Z,95201.20
2019-04-03T02:49:36.196Z,95192.75
2019-04-03T02:52:05.796Z,95192.09
2019-04-03T02:54:38.278Z,95191.63
2019-04-03T02:57:07.774Z,95194.81
2019-04-03T02:59:37.574Z,95197.20
2019-04-03T03:02:11.387Z,95200.23
2019-04-03T03:04:39.032Z,95207.26
2019-04-03T03:07:09.000Z,95208.84
2019-04-03T03:09:39.684Z,95205.16
2019-04-03T03:12:09.850Z,95202.13
2019-04-03T03:14:40.380Z,95213.94
2019-04-03T03:17:11.920Z,95216.19
2019-04-03T03:19:42.045Z,95220.02
2019-04-03T03:22:12.111Z,95212.05
2019-04-03T03:24:41.864Z,95220.34
2019-04-03T03:27:12.265Z,95214.59
2019-04-03T03:29:41.791Z,95218.57
2019-04-03T03:32:18.804Z,95223.02
2019-04-03T03:34:53.160Z,95220.29
2019-04-03T03:37:14.972Z,95219.95
2019-04-03T03:39:44.743Z,95216.27
2019-04-03T03:42:15.298Z,95216.92
2019-04-03T03:44:46.310Z,95195.23
2019-04-03T03:47:18.246Z,95222.13
2019-04-03T03:49:50.066Z,95222.73
2019-04-03T03:52:20.148Z,95219.38
2019-04-03T03:54:51.547Z,95222.75
2019-04-03T03:57:21.193Z,95226.97
2019-04-03T03:59:52.649Z,95225.70
2019-04-03T04:02:22.595Z,95235.08
2019-04-03T04:04:52.460Z,95244.86
2019-04-03T04:07:22.414Z,95237.95
2019-04-03T04:09:53.680Z,95243.31
2019-04-03T04:12:23.561Z,95250.50
2019-04-03T04:14:56.412Z,95249.22
2019-04-03T04:17:25.169Z,95251.83
2019-04-03T04:19:54.734Z,95247.97
2019-04-03T04:22:26.653Z,95245.84
2019-04-03T04:24:57.139Z,95246.10
2019-04-03T04:27:28.070Z,95258.70
2019-04-03T04:29:58.737Z,95247.13
2019-04-03T04:32:28.493Z,95251.89
2019-04-03T04:34:58.066Z,95256.64
2019-04-03T04:37:27.592Z,95250.05
2019-04-03T04:39:57.965Z,95246.88
2019-04-03T04:42:29.232Z,95249.77
2019-04-03T04:44:59.037Z,95247.23
2019-04-03T04:47:28.525Z,95249.30
2019-04-03T04:49:58.034Z,95251.59
2019-04-03T04:52:28.218Z,95234.98
2019-04-03T04:54:57.860Z,95233.41
2019-04-03T04:57:27.354Z,95233.44
2019-04-03T04:59:56.773Z,95239.04
2019-04-03T05:08:36.737Z,95176.31
2019-04-03T05:11:07.546Z,95228.02
2019-04-03T05:13:37.937Z,95226.91
2019-04-03T05:16:07.856Z,95225.11
2019-04-03T05:18:37.685Z,95229.91
2019-04-03T05:21:12.162Z,95226.52
2019-04-03T05:26:56.776Z,95219.88
2019-04-03T05:29:26.262Z,95225.42
2019-04-03T05:31:58.692Z,95212.70
2019-04-03T05:34:28.503Z,95155.73
2019-04-03T05:36:58.482Z,95212.78
2019-04-03T05:39:28.224Z,95215.11
2019-04-03T05:42:06.763Z,95210.03
2019-04-03T05:44:36.534Z,95208.66
2019-04-03T05:47:08.100Z,95188.95
2019-04-03T05:49:37.575Z,95189.75
2019-04-03T05:52:08.659Z,95193.08
2019-04-03T05:54:39.356Z,95192.36
2019-04-03T05:57:10.113Z,95191.66
2019-04-03T05:59:44.561Z,95188.67
2019-04-03T06:02:19.775Z,95183.01
2019-04-03T06:04:46.925Z,95193.95
2019-04-03T06:07:18.956Z,95181.85
2019-04-03T06:09:53.105Z,95175.91
2019-04-03T06:12:22.059Z,95177.06
2019-04-03T06:14:52.100Z,95171.64
2019-04-03T06:17:21.925Z,95172.38
2019-04-03T06:19:54.212Z,95167.30
2019-04-03T06:22:24.046Z,95165.84
2019-04-03T06:24:55.842Z,95159.90
2019-04-03T06:27:27.489Z,95159.72
2019-04-03T06:29:57.730Z,95160.66
2019-04-03T06:32:29.234Z,95162.33
2019-04-03T06:34:59.870Z,95149.86
2019-04-03T06:37:29.597Z,95139.13
2019-04-03T06:40:02.350Z,95142.90
2019-04-03T06:42:31.008Z,95143.41
2019-04-03T06:45:01.036Z,95138.41
2019-04-03T06:47:32.214Z,95140.88
2019-04-03T06:50:02.256Z,95140.80
2019-04-03T06:52:33.691Z,95133.42
2019-04-03T06:55:04.824Z,95130.55
2019-04-03T06:57:38.979Z,95134.56
2019-04-03T07:00:09.419Z,95129.92
2019-04-03T07:02:39.416Z,95130.64
2019-04-03T07:05:42.903Z,95116.10
2019-04-03T07:08:27.649Z,95120.38
2019-04-03T07:10:54.905Z,95117.22
2019-04-03T07:13:29.558Z,95127.05
2019-04-03T07:16:03.799Z,95117.63
2019-04-03T07:18:37.005Z,95119.31
2019-04-03T07:21:07.873Z,95122.97
2019-04-03T07:23:38.191Z,95119.22
2019-04-03T07:26:07.834Z,95111.37
2019-04-03T07:28:42.410Z,95111.83
2019-04-03T07:31:12.095Z,95099.98
2019-04-03T07:33:41.887Z,95108.08
2019-04-03T07:36:13.429Z,95104.80
2019-04-03T07:38:43.835Z,95107.34
2019-04-03T07:41:14.055Z,95092.48
2019-04-03T07:43:44.927Z,95119.19
2019-04-03T07:46:16.656Z,95102.42
2019-04-03T07:48:47.519Z,95114.28
2019-04-03T07:51:17.633Z,95119.38
2019-04-03T07:53:50.223Z,95124.27
2019-04-03T07:56:19.529Z,95123.63
2019-04-03T07:58:50.653Z,95108.25
2019-04-03T08:01:20.359Z,95098.67
2019-04-03T08:03:53.275Z,95108.09
2019-04-03T08:06:23.848Z,95107.23
2019-04-03T08:09:06.960Z,95101.29
2019-04-03T08:11:26.852Z,95095.81
2019-04-03T08:13:56.809Z,95080.63
2019-04-03T08:16:27.123Z,95094.78
2019-04-03T08:18:58.673Z,95088.19
2019-04-03T08:21:30.875Z,95086.11
2019-04-03T08:24:02.220Z,95088.52
2019-04-03T08:26:32.548Z,95086.38
2019-04-03T08:29:06.658Z,95085.04
2019-04-03T08:31:36.959Z,95076.86
2019-04-03T08:34:15.855Z,95080.41
2019-04-03T08:36:39.914Z,95078.62
2019-04-03T08:39:09.838Z,95075.30
2019-04-03T08:41:39.579Z,95072.20
2019-04-03T08:44:09.313Z,95060.59
2019-04-03T08:46:44.090Z,95066.47
2019-04-03T08:49:21.338Z,95065.08
2019-04-03T08:51:54.090Z,95053.80
2019-04-03T08:54:23.088Z,95054.06
2019-04-03T08:56:52.846Z,95050.65
2019-04-03T08:59:22.649Z,95056.61
2019-04-03T09:01:55.097Z,95051.25
2019-04-03T09:04:23.659Z,95040.88
2019-04-03T09:06:54.222Z,95040.11
2019-04-03T09:09:24.654Z,95032.64
2019-04-03T09:11:56.062Z,95025.00
2019-04-03T09:14:26.212Z,95028.33
2019-04-03T09:16:57.046Z,95021.77
2019-04-03T09:19:27.105Z,95013.33
2019-04-03T09:21:56.980Z,95013.81
2019-04-03T09:24:30.662Z,95017.59
2019-04-03T09:27:00.743Z,95005.55
2019-04-03T09:29:30.676Z,94994.22
2019-04-03T09:32:00.346Z,94992.95
2019-04-03T09:34:32.157Z,94986.11
2019-04-03T09:37:05.843Z,94991.16
2019-04-03T09:39:34.816Z,94980.73
2019-04-03T09:42:04.705Z,94972.94
2019-04-03T09:44:34.348Z,94968.52
2019-04-03T09:47:05.276Z,94961.33
2019-04-03T09:49:34.968Z,94946.05
2019-04-03T09:52:04.825Z,94945.37
2019-04-03T09:54:34.478Z,94947.64
2019-04-03T09:57:05.293Z,94937.57
2019-04-03T09:59:37.411Z,94928.38
2019-04-03T10:02:07.010Z,94935.02
2019-04-03T10:04:36.651Z,94931.73
2019-04-03T10:07:06.318Z,94915.50
2019-04-03T10:09:38.479Z,94909.06
2019-04-03T10:12:07.172Z,94900.30
2019-04-03T10:14:37.069Z,94902.48
2019-04-03T10:17:07.316Z,94908.53
2019-04-03T10:19:37.789Z,94917.04
2019-04-03T10:22:07.878Z,94905.72
2019-04-03T10:24:40.497Z,94902.08
2019-04-03T10:27:11.117Z,94887.90
2019-04-03T10:29:41.959Z,94886.39
2019-04-03T10:32:12.686Z,94887.02
2019-04-03T10:34:42.431Z,94867.95
2019-04-03T10:37:14.778Z,94863.03
2019-04-03T10:39:44.701Z,94857.09
2019-04-03T10:42:14.677Z,94860.29
2019-04-03T10:44:45.518Z,94855.88
2019-04-03T10:47:15.098Z,94846.01
2019-04-03T10:49:44.897Z,94840.80
2019-04-03T10:52:15.161Z,94830.63
2019-04-03T10:54:44.988Z,94830.45
2019-04-03T10:57:14.561Z,94831.06
2019-04-03T10:59:44.363Z,94820.02
2019-04-03T11:02:14.140Z,94833.94
2019-04-03T11:04:44.153Z,94820.73
2019-04-03T11:07:13.898Z,94818.41
2019-04-03T11:09:55.752Z,94817.41
2019-04-03T11:12:32.461Z,94813.20
2019-04-03T11:15:11.523Z,94802.42
2019-04-03T11:26:35.097Z,94794.36
2019-04-03T11:29:20.828Z,94782.64
2019-04-03T11:31:50.584Z,94780.22
2019-04-03T11:34:20.328Z,94768.79
2019-04-03T11:36:52.099Z,94759.86
2019-04-03T11:39:22.075Z,94762.72
2019-04-03T11:41:54.515Z,94744.98
2019-04-03T11:44:32.848Z,94756.52
2019-04-03T11:47:24.122Z,94747.19
2019-04-03T11:49:40.061Z,94709.47
2019-04-03T11:52:09.949Z,94735.38
2019-04-03T11:54:40.028Z,94728.33
2019-04-03T11:57:10.546Z,94726.97
2019-04-03T11:59:55.402Z,94713.66
2019-04-03T12:02:14.323Z,94706.42
2019-04-03T12:04:45.690Z,94712.40
2019-04-03T12:07:15.377Z,94701.34
2019-04-03T12:09:45.054Z,94702.38
2019-04-03T12:12:15.289Z,94702.34
2019-04-03T12:14:45.133Z,94705.38
2019-04-03T12:17:14.914Z,94693.61
2019-04-03T12:19:47.697Z,94696.53
2019-04-03T12:22:22.079Z,94684.38
2019-04-03T12:24:53.465Z,94689.03
2019-04-03T12:27:26.256Z,94681.85
2019-04-03T12:29:55.661Z,94688.11
2019-04-03T12:32:36.597Z,94689.97
2019-04-03T12:34:59.014Z,94681.47
2019-04-03T12:37:31.360Z,94689.02
2019-04-03T12:40:24.846Z,94677.08
2019-04-03T12:43:35.628Z,94675.23
2019-04-03T12:45:36.751Z,94676.91
2019-04-03T12:48:12.372Z,94667.75
2019-04-03T12:50:45.776Z,94669.90
2019-04-03T12:53:20.279Z,94666.95
2019-04-03T12:56:01.982Z,94661.30
2019-04-03T12:58:35.819Z,94655.54
2019-04-03T13:03:11.877Z,94650.82
2019-04-03T13:04:19.683Z,94651.94
2019-04-03T13:06:50.991Z,94647.09
2019-04-03T13:09:24.634Z,94636.13
2019-04-03T13:11:54.301Z,94639.83
2019-04-03T13:14:27.014Z,94634.92
2019-04-03T13:16:56.183Z,94618.82
2019-04-03T13:19:25.899Z,94631.36
2019-04-03T13:25:21.433Z,94628.93
2019-04-03T13:33:23.613Z,94626.77
2019-04-03T13:36:11.906Z,94632.12
2019-04-03T13:38:43.496Z,94582.47
2019-04-03T13:41:17.975Z,94633.11
2019-04-03T13:47:13.191Z,94620.83
2019-04-03T13:49:56.665Z,94620.45
2019-04-03T13:55:24.317Z,94617.57
2019-04-03T13:57:55.875Z,94623.52
2019-04-03T14:01:19.189Z,94627.41
2019-04-03T14:03:04.181Z,94636.66
2019-04-03T14:05:55.664Z,94632.76
2019-04-03T14:08:36.242Z,94635.08
2019-04-03T14:15:19.235Z,94632.38
2019-04-03T14:18:27.654Z,94635.54
2019-04-03T14:23:10.353Z,94629.77
2019-04-03T14:25:40.136Z,94628.41
2019-04-03T14:28:11.357Z,94627.84
2019-04-03T14:30:43.715Z,94632.44
2019-04-03T14:33:12.359Z,94635.70
2019-04-03T14:35:50.408Z,94643.21
2019-04-03T14:38:13.242Z,94640.54
2019-04-03T14:40:43.513Z,94636.64
2019-04-03T14:43:14.288Z,94627.28
2019-04-03T14:45:45.154Z,94632.88
2019-04-03T14:48:15.030Z,94638.89
2019-04-03T14:50:45.845Z,94636.32
2019-04-03T14:53:15.956Z,94637.34
2019-04-03T14:55:49.425Z,94638.71
2019-04-03T14:58:17.779Z,94632.81
2019-04-03T15:00:48.795Z,94637.95
2019-04-03T15:03:18.685Z,94630.72
2019-04-03T15:05:48.308Z,94630.56
2019-04-03T15:08:18.255Z,94634.33
2019-04-03T15:10:50.038Z,94638.58
2019-04-03T15:13:19.114Z,94631.63
2019-04-03T15:15:48.796Z,94629.98
2019-04-03T15:18:18.636Z,94632.52
2019-04-03T15:20:49.221Z,94634.83
2019-04-03T15:23:19.894Z,94636.48
2019-04-03T15:25:52.166Z,94643.36
2019-04-03T15:28:20.788Z,94640.79
2019-04-03T15:30:50.555Z,94647.44
2019-04-03T15:33:23.178Z,94635.02
2019-04-03T15:35:51.282Z,94656.08
2019-04-03T15:38:20.979Z,94653.81
2019-04-03T15:40:50.572Z,94648.01
2019-04-03T15:43:20.242Z,94658.59
2019-04-03T15:45:49.776Z,94658.53
2019-04-03T15:48:21.458Z,94661.82
2019-04-03T15:50:50.562Z,94660.40
2019-04-03T15:53:20.704Z,94657.98
2019-04-03T15:55:52.600Z,94663.34
2019-04-03T15:58:22.834Z,94659.03
2019-04-03T16:00:54.677Z,94655.77
2019-04-03T16:03:29.247Z,94666.75
2019-04-03T16:05:58.797Z,94670.05
2019-04-03T16:08:29.975Z,94659.76
2019-04-03T16:10:59.580Z,94669.98
2019-04-03T16:13:29.717Z,94667.82
2019-04-03T16:16:00.810Z,94671.72
2019-04-03T16:18:30.745Z,94671.21
2019-04-03T16:21:00.508Z,94676.36
2019-04-03T16:23:30.749Z,94672.11
2019-04-03T16:26:00.445Z,94671.95
2019-04-03T16:28:33.273Z,94680.91
2019-04-03T16:31:01.601Z,94679.00
2019-04-03T16:33:31.376Z,94675.25
2019-04-03T16:36:02.479Z,94679.44
2019-04-03T16:38:32.512Z,94685.29
2019-04-03T16:41:02.537Z,94679.25
2019-04-03T16:43:32.341Z,94688.61
2019-04-03T16:46:01.841Z,94690.14
2019-04-03T16:48:31.486Z,94689.90
2019-04-03T16:51:01.576Z,94691.86
2019-04-03T16:53:31.219Z,94686.89
2019-04-03T16:56:01.089Z,94698.14
2019-04-03T16:58:31.052Z,94698.61
2019-04-03T17:01:00.493Z,94690.70
2019-04-03T17:03:32.054Z,94691.58
2019-04-03T17:06:01.462Z,94691.16
2019-04-03T17:08:30.970Z,94703.14
2019-04-03T17:11:00.481Z,94702.25
2019-04-03T17:13:29.981Z,94702.96
2019-04-03T17:15:59.658Z,94713.55
2019-04-03T17:18:29.249Z,94712.98
2019-04-03T17:20:58.854Z,94709.86
2019-04-03T17:23:28.826Z,94712.29
2019-04-03T17:25:59.271Z,94715.12
2019-04-03T17:28:29.005Z,94721.38
2019-04-03T17:30:58.665Z,94729.81
2019-04-03T17:33:29.578Z,94737.52
2019-04-03T17:35:59.086Z,94738.70
2019-04-03T17:38:31.453Z,94754.86
2019-04-03T17:40:59.828Z,94755.59
2019-04-03T17:43:29.457Z,94750.36
2019-04-03T17:45:58.967Z,94761.67
2019-04-03T17:48:28.399Z,94759.89
2019-04-03T17:50:58.049Z,94763.45
2019-04-03T17:53:27.665Z,94766.53
2019-04-03T17:55:57.185Z,94775.68
2019-04-03T17:58:26.784Z,94771.96
2019-04-03T18:00:56.375Z,94769.34
2019-04-03T18:03:26.054Z,94777.69
2019-04-03T18:05:56.908Z,94786.73
2019-04-03T18:11:42.835Z,94788.52
2019-04-03T18:14:21.861Z,94784.96
2019-04-03T18:17:13.190Z,94787.34
2019-04-03T18:19:42.626Z,94793.50
2019-04-03T18:22:14.146Z,94796.55
2019-04-03T18:24:45.035Z,94793.22
2019-04-03T18:27:18.041Z,94807.29
2019-04-03T18:30:02.383Z,94801.56
2019-04-03T18:32:33.558Z,94802.13
2019-04-03T18:35:08.416Z,94813.23
2019-04-03T18:37:41.889Z,94784.95
2019-04-03T18:40:13.980Z,94814.64
2019-04-03T18:42:43.301Z,94812.67
2019-04-03T18:45:24.601Z,94817.27
2019-04-03T18:47:47.230Z,94822.22
2019-04-03T18:50:17.258Z,94825.58
2019-04-03T18:52:50.156Z,94830.41
2019-04-03T18:55:25.994Z,94830.32
2019-04-03T18:57:59.572Z,94828.63
2019-04-03T19:00:30.737Z,94831.02
2019-04-03T19:03:01.768Z,94825.36
2019-04-03T19:05:34.566Z,94824.38
2019-04-03T19:08:13.027Z,94823.78
2019-04-03T19:10:37.194Z,94823.41
2019-04-03T19:13:06.953Z,94816.36
2019-04-03T19:15:39.646Z,94823.59
2019-04-03T19:18:19.432Z,94817.64
2019-04-03T19:20:41.877Z,94823.20
2019-04-03T19:23:11.652Z,94829.23
2019-04-03T19:25:41.412Z,94823.89
2019-04-03T19:28:11.042Z,94827.53
2019-04-03T19:30:41.610Z,94834.14
2019-04-03T19:33:12.063Z,94835.16
2019-04-03T19:35:42.567Z,94827.70
2019-04-03T19:38:13.373Z,94833.64
2019-04-03T19:40:43.132Z,94833.81
2019-04-03T19:43:14.668Z,94843.30
2019-04-03T19:45:44.318Z,94831.45
2019-04-03T19:48:13.903Z,94838.23
2019-04-03T19:50:43.566Z,94844.23
2019-04-03T19:53:14.043Z,94842.09
2019-04-03T19:55:43.867Z,94849.86
2019-04-03T19:58:13.511Z,94842.03
2019-04-03T20:00:43.171Z,94852.70
2019-04-03T20:03:14.092Z,94847.56
2019-04-03T20:05:44.598Z,94849.44
2019-04-03T20:08:14.416Z,94846.98
2019-04-03T20:10:44.188Z,94853.87
2019-04-03T20:13:28.438Z,94852.14
2019-04-03T20:16:10.607Z,94861.10
2019-04-03T20:18:53.028Z,94851.58
2019-04-03T20:21:25.794Z,94861.33
2019-04-03T20:24:12.525Z,94847.78
2019-04-03T20:26:41.809Z,94859.83
2019-04-03T20:29:11.431Z,94859.34
2019-04-03T20:31:41.128Z,94865.05
2019-04-03T20:34:13.020Z,94870.83
2019-04-03T20:36:54.967Z,94869.14
2019-04-03T20:39:29.056Z,94867.34
2019-04-03T20:41:59.485Z,94871.03
2019-04-03T20:44:29.000Z,94875.31
2019-04-03T20:46:59.171Z,94875.86
2019-04-03T20:49:29.841Z,94873.31
2019-04-03T20:51:59.228Z,94873.31
2019-04-03T20:54:28.724Z,94874.89
2019-04-03T20:57:02.150Z,94877.02
2019-04-03T20:59:30.224Z,94886.00
2019-04-03T21:01:59.999Z,94882.15
2019-04-03T21:04:29.887Z,94885.09
2019-04-03T21:06:59.391Z,94883.58
2019-04-03T21:09:30.435Z,94893.14
2019-04-03T21:12:00.178Z,94899.28
2019-04-03T21:14:29.797Z,94888.16
2019-04-03T21:17:02.920Z,94892.24
2019-04-03T21:19:32.475Z,94901.86
2019-04-03T21:22:01.891Z,94909.73
2019-04-03T21:24:34.167Z,94907.94
2019-04-03T21:27:02.720Z,94913.52
2019-04-03T21:29:32.333Z,94921.09
2019-04-03T21:32:01.939Z,94925.00
2019-04-03T21:34:32.827Z,94921.83
2019-04-03T21:37:02.715Z,94912.33
2019-04-03T21:39:33.785Z,94920.16
2019-04-03T21:42:03.805Z,94916.42
2019-04-03T21:44:34.964Z,94912.16
2019-04-03T21:47:04.667Z,94924.30
2019-04-03T21:49:34.352Z,94926.59
2019-04-03T21:52:26.456Z,94917.33
2019-04-03T21:54:59.992Z,94930.90
2019-04-03T21:57:32.495Z,94934.36
2019-04-03T22:00:05.939Z,94932.33
2019-04-03T22:02:57.741Z,94929.42
2019-04-03T22:05:27.426Z,94936.14
2019-04-03T22:07:59.844Z,94932.70
2019-04-03T22:10:32.787Z,94929.16
2019-04-03T22:13:10.470Z,94918.02
2019-04-03T22:15:40.185Z,94931.95
2019-04-03T22:18:14.364Z,94939.59
2019-04-03T22:20:44.006Z,94931.19
2019-04-03T22:23:14.868Z,94924.05
2019-04-03T22:25:44.807Z,94938.70
2019-04-03T22:28:14.486Z,94940.30
2019-04-03T22:30:44.102Z,94930.80
2019-04-03T22:33:25.914Z,94927.97
2019-04-03T22:36:03.303Z,94940.41
2019-04-03T22:38:37.262Z,94930.31
2019-04-03T22:41:07.465Z,94923.06
2019-04-03T22:43:37.062Z,94924.08
2019-04-03T22:46:07.264Z,94925.39
2019-04-03T22:48:36.933Z,94922.83
2019-04-03T22:51:06.927Z,94922.08
2019-04-03T22:53:37.148Z,94924.19
2019-04-03T22:56:06.856Z,94919.55
2019-04-03T22:58:36.655Z,94920.52
2019-04-03T23:01:06.804Z,94910.42
2019-04-03T23:03:44.899Z,94913.89
2019-04-03T23:06:14.557Z,94919.55
2019-04-03T23:08:44.126Z,94919.75
2019-04-03T23:11:13.709Z,94920.25
2019-04-03T23:13:43.423Z,94912.27
2019-04-03T23:16:13.068Z,94911.38
2019-04-03T23:18:42.712Z,94918.08
2019-04-03T23:21:12.354Z,94917.36
2019-04-03T23:23:41.920Z,94913.52
2019-04-03T23:26:11.612Z,94915.26
2019-04-03T23:28:41.167Z,94918.62
2019-04-03T23:31:11.181Z,94915.34
2019-04-03T23:33:42.130Z,94906.28
2019-04-03T23:36:11.731Z,94920.02
2019-04-03T23:38:42.672Z,94916.91
2019-04-03T23:41:12.338Z,94923.23
2019-04-03T23:43:42.099Z,94918.30
2019-04-03T23:46:12.817Z,94916.89
2019-04-03T23:48:42.980Z,94918.39
2019-04-03T23:51:22.638Z,94912.61
2019-04-03T23:53:43.989Z,94922.94
2019-04-03T23:56:13.642Z,94912.84
2019-04-03T23:58:43.350Z,94924.81
